Time,TemperatureF,DewpointF,PressureIn,WindDirection,WindDirectionDegrees,WindSpeedMPH,WindSpeedGustMPH,Humidity,HourlyPrecipIn,Conditions,Clouds,dailyrainin,SolarRadiationWatts/m^2,SoftwareType,DateUTC
2013-05-18 00:02:00,68.0,9.0,-100.00,WSW,238,14.0,23.0,10,0.00,,,0.00,416.000000,,2013-05-18 00:02:00,
2013-05-18 00:14:00,68.0,9.0,-100.00,WSW,238,14.0,23.0,10,0.00,,,0.00,416.000000,,2013-05-18 00:14:00,
2013-05-18 00:22:00,68.0,9.0,-100.00,WSW,238,14.0,23.0,10,0.00,,,0.00,416.000000,,2013-05-18 00:22:00,
2013-05-18 00:33:00,68.0,9.0,-100.00,WSW,238,14.0,23.0,10,0.00,,,0.00,416.000000,,2013-05-18 00:33:00,
2013-05-18 01:03:00,67.0,13.0,-100.00,SSW,207,11.0,25.0,12,0.00,,,0.00,251.000000,,2013-05-18 01:03:00,
2013-05-18 01:13:00,67.0,13.0,-100.00,SSW,207,11.0,25.0,12,0.00,,,0.00,251.000000,,2013-05-18 01:13:00,
2013-05-18 01:24:00,67.0,13.0,-100.00,SSW,207,11.0,25.0,12,0.00,,,0.00,251.000000,,2013-05-18 01:24:00,
2013-05-18 01:32:00,67.0,13.0,-100.00,SSW,207,11.0,25.0,12,0.00,,,0.00,251.000000,,2013-05-18 01:32:00,
2013-05-18 02:02:00,62.0,14.0,-100.00,SSW,211,6.0,16.0,15,0.00,,,0.00,28.000000,,2013-05-18 02:02:00,
2013-05-18 02:12:00,62.0,14.0,-100.00,SSW,211,6.0,16.0,15,0.00,,,0.00,28.000000,,2013-05-18 02:12:00,
2013-05-18 02:22:00,62.0,14.0,-100.00,SSW,211,6.0,16.0,15,0.00,,,0.00,28.000000,,2013-05-18 02:22:00,
2013-05-18 02:31:00,62.0,14.0,-100.00,SSW,211,6.0,16.0,15,0.00,,,0.00,28.000000,,2013-05-18 02:31:00,
2013-05-18 03:03:00,47.0,15.0,-100.00,North,0,4.0,8.0,27,0.00,,,0.00,5.000000,,2013-05-18 03:03:00,
2013-05-18 04:03:00,42.0,16.0,-100.00,North,4,5.0,8.0,34,-99.99,,,0.00,0.000000,,2013-05-18 04:03:00,
2013-05-18 05:02:00,44.0,15.0,-100.00,NNE,19,5.0,10.0,30,-99.99,,,0.00,0.000000,,2013-05-18 05:02:00,
2013-05-18 06:02:00,41.0,15.0,-100.00,NNE,15,6.0,10.0,34,-99.99,,,0.00,0.000000,,2013-05-18 06:02:00,
2013-05-18 07:01:00,38.0,16.0,-100.00,North,349,5.0,10.0,41,0.00,,,0.00,0.000000,,2013-05-18 07:01:00,
2013-05-18 08:01:00,39.0,15.0,-100.00,NNE,22,3.0,11.0,37,-99.99,,,0.00,0.000000,,2013-05-18 08:01:00,
2013-05-18 09:02:00,35.0,17.0,-100.00,NNE,19,2.0,7.0,47,-99.99,,,0.00,0.000000,,2013-05-18 09:02:00,
2013-05-18 10:03:00,35.0,16.0,-100.00,NNE,15,5.0,8.0,45,-99.99,,,0.00,0.000000,,2013-05-18 10:03:00,
2013-05-18 11:03:00,34.0,18.0,-100.00,North,354,5.0,8.0,52,-99.99,,,0.00,0.000000,,2013-05-18 11:03:00,
2013-05-18 12:02:00,37.0,21.0,-100.00,North,358,3.0,7.0,53,-99.99,,,0.00,0.000000,,2013-05-18 12:02:00,
2013-05-18 13:01:00,39.0,21.0,-100.00,NNW,348,2.0,6.0,49,-99.99,,,0.00,4.000000,,2013-05-18 13:01:00,
2013-05-18 13:11:00,39.0,21.0,-100.00,NNW,348,2.0,6.0,49,-99.99,,,0.00,4.000000,,2013-05-18 13:11:00,
2013-05-18 13:21:00,39.0,21.0,-100.00,NNW,348,2.0,6.0,49,-99.99,,,0.00,4.000000,,2013-05-18 13:21:00,
2013-05-18 13:33:00,39.0,21.0,-100.00,NNW,348,2.0,6.0,49,-99.99,,,0.00,4.000000,,2013-05-18 13:33:00,
2013-05-18 14:03:00,46.0,22.0,-100.00,South,181,2.0,6.0,39,-99.99,,,0.00,90.000000,,2013-05-18 14:03:00,
2013-05-18 14:12:00,46.0,22.0,-100.00,South,181,2.0,6.0,39,-99.99,,,0.00,90.000000,,2013-05-18 14:12:00,
2013-05-18 14:22:00,46.0,22.0,-100.00,South,181,2.0,6.0,39,-99.99,,,0.00,90.000000,,2013-05-18 14:22:00,
2013-05-18 14:32:00,46.0,22.0,-100.00,South,181,2.0,6.0,39,-99.99,,,0.00,90.000000,,2013-05-18 14:32:00,
2013-05-18 15:03:00,52.0,19.0,-100.00,South,173,9.0,13.0,27,0.00,,,0.00,359.000000,,2013-05-18 15:03:00,
2013-05-18 15:13:00,52.0,19.0,-100.00,South,173,9.0,13.0,27,0.00,,,0.00,359.000000,,2013-05-18 15:13:00,
2013-05-18 15:23:00,52.0,19.0,-100.00,South,173,9.0,13.0,27,0.00,,,0.00,359.000000,,2013-05-18 15:23:00,
2013-05-18 15:33:00,52.0,19.0,-100.00,South,173,9.0,13.0,27,0.00,,,0.00,359.000000,,2013-05-18 15:33:00,
2013-05-18 16:03:00,57.0,21.0,-100.00,SSE,151,10.0,16.0,24,0.00,,,0.00,564.000000,,2013-05-18 16:03:00,
2013-05-18 16:13:00,57.0,21.0,-100.00,SSE,151,10.0,16.0,24,0.00,,,0.00,564.000000,,2013-05-18 16:13:00,
2013-05-18 16:22:00,57.0,21.0,-100.00,SSE,151,10.0,16.0,24,0.00,,,0.00,564.000000,,2013-05-18 16:22:00,
2013-05-18 16:33:00,57.0,21.0,-100.00,SSE,151,10.0,16.0,24,0.00,,,0.00,564.000000,,2013-05-18 16:33:00,
2013-05-18 17:02:00,60.0,21.0,-100.00,SW,222,9.0,29.0,22,0.00,,,0.00,653.000000,,2013-05-18 17:02:00,
2013-05-18 17:12:00,60.0,21.0,-100.00,SW,222,9.0,29.0,22,0.00,,,0.00,653.000000,,2013-05-18 17:12:00,
2013-05-18 17:22:00,60.0,21.0,-100.00,SW,222,9.0,29.0,22,0.00,,,0.00,653.000000,,2013-05-18 17:22:00,
2013-05-18 17:32:00,60.0,21.0,-100.00,SW,222,9.0,29.0,22,0.00,,,0.00,653.000000,,2013-05-18 17:32:00,
2013-05-18 18:01:00,62.0,20.0,-100.00,SE,131,6.0,15.0,20,0.00,,,0.00,808.000000,,2013-05-18 18:01:00,
2013-05-18 18:12:00,62.0,20.0,-100.00,SE,131,6.0,15.0,20,0.00,,,0.00,808.000000,,2013-05-18 18:12:00,
2013-05-18 18:21:00,62.0,20.0,-100.00,SE,131,6.0,15.0,20,0.00,,,0.00,808.000000,,2013-05-18 18:21:00,
2013-05-18 18:32:00,62.0,20.0,-100.00,SE,131,6.0,15.0,20,0.00,,,0.00,808.000000,,2013-05-18 18:32:00,
2013-05-18 19:02:00,62.0,22.0,-100.00,SW,236,9.0,17.0,21,0.00,,,0.00,877.000000,,2013-05-18 19:02:00,
2013-05-18 19:12:00,62.0,22.0,-100.00,SW,236,9.0,17.0,21,0.00,,,0.00,877.000000,,2013-05-18 19:12:00,
2013-05-18 19:22:00,62.0,22.0,-100.00,SW,236,9.0,17.0,21,0.00,,,0.00,877.000000,,2013-05-18 19:22:00,
2013-05-18 19:32:00,62.0,22.0,-100.00,SW,236,9.0,17.0,21,0.00,,,0.00,877.000000,,2013-05-18 19:32:00,
2013-05-18 20:02:00,59.0,22.0,-100.00,SSW,211,5.0,16.0,24,0.00,,,0.00,330.000000,,2013-05-18 20:02:00,
2013-05-18 20:11:00,59.0,22.0,-100.00,SSW,211,5.0,16.0,24,0.00,,,0.00,330.000000,,2013-05-18 20:11:00,
2013-05-18 20:22:00,59.0,22.0,-100.00,SSW,211,5.0,16.0,24,0.00,,,0.00,330.000000,,2013-05-18 20:22:00,
2013-05-18 20:32:00,59.0,22.0,-100.00,SSW,211,5.0,16.0,24,0.00,,,0.00,330.000000,,2013-05-18 20:32:00,
2013-05-18 21:01:00,61.0,23.0,-100.00,SE,141,8.0,19.0,23,0.00,,,0.00,601.000000,,2013-05-18 21:01:00,
2013-05-18 21:12:00,61.0,23.0,-100.00,SE,141,8.0,19.0,23,0.00,,,0.00,601.000000,,2013-05-18 21:12:00,
2013-05-18 21:21:00,61.0,23.0,-100.00,SE,141,8.0,19.0,23,0.00,,,0.00,601.000000,,2013-05-18 21:21:00,
2013-05-18 21:32:00,61.0,23.0,-100.00,SE,141,8.0,19.0,23,0.00,,,0.00,601.000000,,2013-05-18 21:32:00,
2013-05-18 22:03:00,59.0,23.0,-100.00,WSW,253,7.0,25.0,25,0.00,,,0.00,217.000000,,2013-05-18 22:03:00,
2013-05-18 22:12:00,59.0,23.0,-100.00,WSW,253,7.0,25.0,25,0.00,,,0.00,217.000000,,2013-05-18 22:12:00,
2013-05-18 22:23:00,59.0,23.0,-100.00,WSW,253,7.0,25.0,25,0.00,,,0.00,217.000000,,2013-05-18 22:23:00,
2013-05-18 22:33:00,59.0,23.0,-100.00,WSW,253,7.0,25.0,25,0.00,,,0.00,217.000000,,2013-05-18 22:33:00,
2013-05-18 23:01:00,59.0,20.0,-100.00,WSW,253,8.0,15.0,22,0.00,,,0.00,537.000000,,2013-05-18 23:01:00,
2013-05-18 23:12:00,59.0,20.0,-100.00,WSW,253,8.0,15.0,22,0.00,,,0.00,537.000000,,2013-05-18 23:12:00,
2013-05-18 23:22:00,59.0,20.0,-100.00,WSW,253,8.0,15.0,22,0.00,,,0.00,537.000000,,2013-05-18 23:22:00,
2013-05-18 23:32:00,59.0,20.0,-100.00,WSW,253,8.0,15.0,22,0.00,,,0.00,537.000000,,2013-05-18 23:32:00,